EDT,Max TemperatureF,Mean TemperatureF,Min TemperatureF,Max Dew PointF,MeanDew PointF,Min DewpointF,Max Humidity, Mean Humidity, Min Humidity, Max Sea Level PressureIn, Mean Sea Level PressureIn, Min Sea Level PressureIn, Max VisibilityMiles, Mean VisibilityMiles, Min VisibilityMiles, Max Wind SpeedMPH, Mean Wind SpeedMPH, Max Gust SpeedMPH,PrecipitationIn, CloudCover, Events, WindDirDegrees
2013-7-1,82,78,75,75,74,72,94,85,70,30.07,29.97,29.90,10,9,5,18,8,26,0.39,2,Rain-Thunderstorm,177
2013-7-2,86,80,73,75,73,70,94,86,70,30.24,30.16,30.07,10,9,2,22,7,40,0.33,2,Rain-Thunderstorm,182
2013-7-3,87,80,73,77,75,72,94,82,66,30.28,30.25,30.21,10,9,2,16,7,22,0.12,2,Rain,182
2013-7-4,89,83,77,75,74,72,94,77,62,30.32,30.28,30.24,10,10,7,13,7,20,0.00,1,,194
2013-7-5,91,83,75,75,73,68,94,74,46,30.29,30.25,30.19,10,10,7,14,7,20,0.00,0,,198
2013-7-6,93,86,78,75,73,64,89,69,41,30.24,30.19,30.13,10,10,5,13,7,18,0.00,0,,224
2013-7-7,93,86,78,73,73,70,83,66,46,30.16,30.11,30.04,10,10,5,17,8,22,0.00,0,,225
2013-7-8,87,82,78,75,73,72,89,73,58,30.15,30.11,30.08,10,10,7,14,7,20,0.00,2,Thunderstorm,233
2013-7-9,91,83,75,75,74,72,94,76,52,30.14,30.10,30.04,10,10,7,10,6,17,0.00,1,Rain-Thunderstorm,204
2013-7-10,91,86,80,77,75,72,84,73,55,30.08,30.00,29.93,10,10,7,15,9,22,0.00,2,Thunderstorm,221
2013-7-11,82,78,75,75,74,72,94,82,74,29.96,29.93,29.90,10,8,2,14,7,23,0.42,3,Rain-Thunderstorm,218
2013-7-12,82,78,75,73,73,72,94,88,70,30.04,29.94,29.89,10,8,3,9,2,,0.17,3,Rain,213
2013-7-13,87,80,73,77,74,72,94,82,62,30.29,30.16,30.04,10,9,4,14,3,26,0.02,1,Rain-Thunderstorm,148
2013-7-14,89,83,77,79,74,66,94,78,46,30.35,30.32,30.29,10,8,0,7,3,,0.00,2,Fog,144
2013-7-15,91,81,71,79,73,70,100,76,49,30.33,30.28,30.21,10,8,0,10,2,,0.00,2,Fog,264
2013-7-16,95,86,77,79,76,73,89,72,52,30.22,30.19,30.15,10,10,7,12,5,,0.00,0,Thunderstorm,295
2013-7-17,95,85,75,81,74,70,94,73,44,30.20,30.16,30.11,10,8,3,7,1,,0.00,1,,68
2013-7-18,96,86,75,79,72,63,94,67,32,30.14,30.09,30.04,10,8,3,9,4,,0.00,0,,218
2013-7-19,96,87,78,79,75,72,89,66,44,30.06,30.01,29.93,10,9,4,17,8,22,0.00,0,,221
2013-7-20,95,88,82,75,75,73,79,65,53,29.96,29.92,29.86,10,10,10,20,13,26,0.00,0,,231
2013-7-21,91,84,77,79,75,73,94,75,55,29.96,29.94,29.89,10,10,7,13,8,21,0.28,2,Rain-Thunderstorm,228
2013-7-22,89,82,75,79,75,73,94,84,62,29.94,29.89,29.81,10,8,1,10,1,,0.10,1,Rain,170
2013-7-23,91,84,78,75,75,72,89,76,52,29.81,29.73,29.67,10,10,4,15,7,22,0.00,2,,233
2013-7-24,91,83,75,77,73,70,94,74,52,29.86,29.76,29.69,10,9,3,14,4,21,0.00,1,Thunderstorm,336
2013-7-25,78,74,69,72,68,64,94,82,73,30.01,29.92,29.84,10,10,4,13,8,20,0.43,5,Rain-Thunderstorm,18
2013-7-26,80,73,66,70,66,63,94,75,54,30.10,30.06,30.00,10,10,7,9,3,,0.00,3,,351
2013-7-27,86,76,66,70,65,61,94,72,45,30.10,30.04,29.98,10,9,1,9,4,,0.00,1,,159
2013-7-28,89,80,71,75,72,68,94,79,58,30.02,29.96,29.93,10,10,2,20,5,23,0.01,2,Rain-Thunderstorm,171
2013-7-29,84,76,66,73,67,55,94,71,39,30.16,30.06,29.98,10,10,5,10,5,,0.19,2,Rain,306
2013-7-30,86,74,62,66,61,55,94,67,37,30.22,30.19,30.16,10,10,7,7,2,,0.00,0,,6
2013-7-31,82,73,64,70,65,61,94,71,48,30.17,30.13,30.06,10,10,5,9,3,,0.00,1,Rain,153